sensor_id;sensor_type;location;lat;lon;timestamp;pressure;altitude;pressure_sealevel;temperature;humidity
74895;BME280;63447;49.446;8.666;2023-04-03T00:01:44;101429.19;;;3.66;69.25
74895;BME280;63447;49.446;8.666;2023-04-03T00:04:09;101432.28;;;3.74;69.42
74895;BME280;63447;49.446;8.666;2023-04-03T00:06:37;101428.41;;;3.70;69.52
74895;BME280;63447;49.446;8.666;2023-04-03T00:09:04;101420.22;;;3.70;69.55
74895;BME280;63447;49.446;8.666;2023-04-03T00:11:30;101426.75;;;3.69;70.04
74895;BME280;63447;49.446;8.666;2023-04-03T00:13:57;101427.78;;;3.58;69.55
74895;BME280;63447;49.446;8.666;2023-04-03T00:16:23;101432.16;;;3.64;70.10
74895;BME280;63447;49.446;8.666;2023-04-03T00:18:48;101429.13;;;3.56;70.01
74895;BME280;63447;49.446;8.666;2023-04-03T00:21:14;101442.44;;;3.52;70.46
74895;BME280;63447;49.446;8.666;2023-04-03T00:23:40;101437.75;;;3.48;70.90
74895;BME280;63447;49.446;8.666;2023-04-03T00:26:08;101440.66;;;3.36;71.25
74895;BME280;63447;49.446;8.666;2023-04-03T00:28:33;101442.84;;;3.34;nan
74895;BME280;63447;49.446;8.666;2023-04-03T00:30:58;101445.28;;;3.09;71.45
74895;BME280;63447;49.446;8.666;2023-04-03T00:33:24;101443.66;;;3.08;72.24
74895;BME280;63447;49.446;8.666;2023-04-03T00:35:50;101437.69;;;3.11;72.44
74895;BME280;63447;49.446;8.666;2023-04-03T00:38:15;101410.31;;;2.79;71.70
74895;BME280;63447;49.446;8.666;2023-04-03T00:40:43;101438.34;;;2.74;72.89
74895;BME280;63447;49.446;8.666;2023-04-03T00:43:27;101444.22;;;2.88;73.03
74895;BME280;63447;49.446;8.666;2023-04-03T00:45:54;101445.00;;;2.83;72.22
74895;BME280;63447;49.446;8.666;2023-04-03T00:48:24;101445.50;;;2.80;72.39
74895;BME280;63447;49.446;8.666;2023-04-03T00:50:53;101439.28;;;2.85;73.09
74895;BME280;63447;49.446;8.666;2023-04-03T00:53:26;101436.25;;;2.81;72.18
74895;BME280;63447;49.446;8.666;2023-04-03T00:55:56;101444.88;;;2.73;71.20
74895;BME280;63447;49.446;8.666;2023-04-03T00:58:31;101447.16;;;2.81;70.41
74895;BME280;63447;49.446;8.666;2023-04-03T01:01:06;101448.84;;;2.87;71.70
74895;BME280;63447;49.446;8.666;2023-04-03T01:03:33;101438.16;;;2.81;70.42
74895;BME280;63447;49.446;8.666;2023-04-03T01:05:59;101441.75;;;2.86;70.29
74895;BME280;63447;49.446;8.666;2023-04-03T01:08:24;101453.09;;;2.78;69.73
74895;BME280;63447;49.446;8.666;2023-04-03T01:10:50;101448.47;;;2.79;70.50
74895;BME280;63447;49.446;8.666;2023-04-03T01:13:22;101437.50;;;2.73;70.73
74895;BME280;63447;49.446;8.666;2023-04-03T01:15:48;101433.91;;;2.68;70.30
74895;BME280;63447;49.446;8.666;2023-04-03T01:18:13;101451.63;;;2.70;70.29
74895;BME280;63447;49.446;8.666;2023-04-03T01:26:33;101439.91;;;2.70;71.17
74895;BME280;63447;49.446;8.666;2023-04-03T01:28:58;101438.84;;;2.71;72.09
74895;BME280;63447;49.446;8.666;2023-04-03T01:31:28;101434.72;;;2.68;72.21
74895;BME280;63447;49.446;8.666;2023-04-03T01:33:59;101436.63;;;2.68;72.64
74895;BME280;63447;49.446;8.666;2023-04-03T01:36:30;101440.88;;;2.59;72.46
74895;BME280;63447;49.446;8.666;2023-04-03T01:38:59;101440.34;;;2.62;72.46
74895;BME280;63447;49.446;8.666;2023-04-03T01:41:25;101425.53;;;2.53;71.48
74895;BME280;63447;49.446;8.666;2023-04-03T01:43:51;101443.31;;;2.60;71.61
74895;BME280;63447;49.446;8.666;2023-04-03T01:46:19;101444.59;;;2.53;71.44
74895;BME280;63447;49.446;8.666;2023-04-03T01:48:45;101446.69;;;2.46;72.61
74895;BME280;63447;49.446;8.666;2023-04-03T01:51:11;101436.78;;;2.39;72.33
74895;BME280;63447;49.446;8.666;2023-04-03T01:53:39;101452.63;;;2.43;72.59
74895;BME280;63447;49.446;8.666;2023-04-03T01:56:07;101454.44;;;2.37;72.82
74895;BME280;63447;49.446;8.666;2023-04-03T01:58:33;101450.53;;;2.28;73.40
74895;BME280;63447;49.446;8.666;2023-04-03T02:01:00;101437.25;;;2.15;73.71
74895;BME280;63447;49.446;8.666;2023-04-03T02:03:28;101445.09;;;2.28;72.58
74895;BME280;63447;49.446;8.666;2023-04-03T02:05:54;101445.09;;;2.11;72.61
74895;BME280;63447;49.446;8.666;2023-04-03T02:08:22;101449.97;;;2.26;73.45
74895;BME280;63447;49.446;8.666;2023-04-03T02:10:48;101462.75;;;2.25;73.74
74895;BME280;63447;49.446;8.666;2023-04-03T02:13:14;101449.06;;;2.20;73.10
74895;BME280;63447;49.446;8.666;2023-04-03T02:15:40;101454.41;;;2.32;73.20
74895;BME280;63447;49.446;8.666;2023-04-03T02:18:06;101457.63;;;2.29;72.68
74895;BME280;63447;49.446;8.666;2023-04-03T02:20:32;101451.44;;;2.33;72.31
74895;BME280;63447;49.446;8.666;2023-04-03T02:23:00;101451.53;;;2.22;71.66
74895;BME280;63447;49.446;8.666;2023-04-03T02:25:25;101448.47;;;2.18;70.49
74895;BME280;63447;49.446;8.666;2023-04-03T02:27:51;101443.78;;;2.14;70.88
74895;BME280;63447;49.446;8.666;2023-04-03T02:30:19;101455.81;;;2.18;71.86
74895;BME280;63447;49.446;8.666;2023-04-03T02:32:49;101453.00;;;2.13;71.02
74895;BME280;63447;49.446;8.666;2023-04-03T02:35:15;101444.38;;;1.99;71.21
74895;BME280;63447;49.446;8.666;2023-04-03T02:37:40;101384.78;;;1.64;71.67
74895;BME280;63447;49.446;8.666;2023-04-03T02:40:06;101447.31;;;2.14;70.75
74895;BME280;63447;49.446;8.666;2023-04-03T02:42:32;101448.41;;;2.13;70.55
74895;BME280;63447;49.446;8.666;2023-04-03T02:44:57;101430.91;;;2.09;71.31
74895;BME280;63447;49.446;8.666;2023-04-03T02:47:22;101440.72;;;2.10;70.91
74895;BME280;63447;49.446;8.666;2023-04-03T02:49:48;101443.69;;;2.09;71.20
74895;BME280;63447;49.446;8.666;2023-04-03T02:52:17;101445.59;;;2.08;70.94
74895;BME280;63447;49.446;8.666;2023-04-03T02:54:43;101443.16;;;2.07;70.28
74895;BME280;63447;49.446;8.666;2023-04-03T02:57:13;101438.44;;;2.02;70.01
74895;BME280;63447;49.446;8.666;2023-04-03T02:59:43;101447.19;;;2.04;69.56
74895;BME280;63447;49.446;8.666;2023-04-03T03:02:13;101440.44;;;2.07;69.38
74895;BME280;63447;49.446;8.666;2023-04-03T03:04:40;101432.75;;;2.03;68.75
74895;BME280;63447;49.446;8.666;2023-04-03T03:07:06;101438.00;;;2.10;68.77
74895;BME280;63447;49.446;8.666;2023-04-03T03:09:31;101429.84;;;2.10;68.58
74895;BME280;63447;49.446;8.666;2023-04-03T03:11:59;101438.19;;;2.03;68.03
74895;BME280;63447;49.446;8.666;2023-04-03T03:14:24;101433.09;;;2.07;68.42
74895;BME280;63447;49.446;8.666;2023-04-03T03:16:49;101434.97;;;2.07;69.34
74895;BME280;63447;49.446;8.666;2023-04-03T03:19:17;101438.94;;;1.99;69.62
74895;BME280;63447;49.446;8.666;2023-04-03T03:21:45;101426.47;;;1.86;69.69
74895;BME280;63447;49.446;8.666;2023-04-03T03:24:10;101428.53;;;1.96;69.16
74895;BME280;63447;49.446;8.666;2023-04-03T03:26:37;101433.38;;;2.11;67.81
74895;BME280;63447;49.446;8.666;2023-04-03T03:29:04;101427.63;;;2.07;68.06
74895;BME280;63447;49.446;8.666;2023-04-03T03:31:35;101438.25;;;2.09;69.18
74895;BME280;63447;49.446;8.666;2023-04-03T03:34:00;101450.78;;;2.10;68.77
74895;BME280;63447;49.446;8.666;2023-04-03T03:36:25;101453.84;;;2.13;68.00
74895;BME280;63447;49.446;8.666;2023-04-03T03:38:51;101447.91;;;2.16;68.07
74895;BME280;63447;49.446;8.666;2023-04-03T03:41:18;101449.06;;;2.20;67.97
74895;BME280;63447;49.446;8.666;2023-04-03T03:43:46;101443.28;;;2.17;68.08
74895;BME280;63447;49.446;8.666;2023-04-03T03:46:11;101446.75;;;2.12;67.59
74895;BME280;63447;49.446;8.666;2023-04-03T03:48:37;101443.69;;;2.09;68.19
74895;BME280;63447;49.446;8.666;2023-04-03T03:51:02;101449.97;;;2.09;68.09
74895;BME280;63447;49.446;8.666;2023-04-03T03:53:30;101436.63;;;2.08;69.25
74895;BME280;63447;49.446;8.666;2023-04-03T03:55:55;101459.19;;;2.08;68.08
74895;BME280;63447;49.446;8.666;2023-04-03T03:58:20;101446.41;;;2.09;68.28
74895;BME280;63447;49.446;8.666;2023-04-03T04:00:46;101451.13;;;2.13;68.26
74895;BME280;63447;49.446;8.666;2023-04-03T04:03:14;101459.19;;;2.08;69.22
74895;BME280;63447;49.446;8.666;2023-04-03T04:05:39;101467.88;;;2.05;68.35
74895;BME280;63447;49.446;8.666;2023-04-03T04:08:05;101452.88;;;2.02;69.21
74895;BME280;63447;49.446;8.666;2023-04-03T04:10:33;101462.94;;;2.02;68.98
74895;BME280;63447;49.446;8.666;2023-04-03T04:12:59;101453.19;;;1.89;69.67
74895;BME280;63447;49.446;8.666;2023-04-03T04:15:27;101459.22;;;1.91;69.22
74895;BME280;63447;49.446;8.666;2023-04-03T04:17:52;101462.75;;;1.92;69.60
74895;BME280;63447;49.446;8.666;2023-04-03T04:20:18;101454.50;;;1.87;70.67
74895;BME280;63447;49.446;8.666;2023-04-03T04:22:43;101463.25;;;1.89;69.83
74895;BME280;63447;49.446;8.666;2023-04-03T04:25:11;101455.34;;;1.87;69.67
74895;BME280;63447;49.446;8.666;2023-04-03T04:27:37;101462.69;;;1.87;70.16
74895;BME280;63447;49.446;8.666;2023-04-03T04:30:03;101462.94;;;1.85;70.04
74895;BME280;63447;49.446;8.666;2023-04-03T04:32:31;101448.94;;;1.77;70.26
74895;BME280;63447;49.446;8.666;2023-04-03T04:34:57;101458.16;;;1.76;70.92
74895;BME280;63447;49.446;8.666;2023-04-03T04:37:25;101445.28;;;1.71;70.50
74895;BME280;63447;49.446;8.666;2023-04-03T04:39:53;101444.63;;;1.64;69.46
74895;BME280;63447;49.446;8.666;2023-04-03T04:42:20;101443.63;;;1.70;69.57
74895;BME280;63447;49.446;8.666;2023-04-03T04:44:48;101462.63;;;1.82;70.61
74895;BME280;63447;49.446;8.666;2023-04-03T04:47:15;101465.06;;;1.83;70.71
74895;BME280;63447;49.446;8.666;2023-04-03T04:49:41;101451.47;;;1.83;69.32
74895;BME280;63447;49.446;8.666;2023-04-03T04:52:08;101455.53;;;1.81;69.91
74895;BME280;63447;49.446;8.666;2023-04-03T04:54:36;101450.91;;;1.81;70.10
74895;BME280;63447;49.446;8.666;2023-04-03T04:57:04;101459.72;;;1.88;69.91
74895;BME280;63447;49.446;8.666;2023-04-03T04:59:32;101462.19;;;1.90;69.69
74895;BME280;63447;49.446;8.666;2023-04-03T05:01:57;101453.88;;;1.96;69.98
74895;BME280;63447;49.446;8.666;2023-04-03T05:04:25;101461.28;;;2.01;69.34
74895;BME280;63447;49.446;8.666;2023-04-03T05:06:50;101463.75;;;2.02;68.86
74895;BME280;63447;49.446;8.666;2023-04-03T05:09:18;101464.00;;;2.01;69.76
74895;BME280;63447;49.446;8.666;2023-04-03T05:11:45;101470.03;;;2.03;69.50
74895;BME280;63447;49.446;8.666;2023-04-03T05:14:18;101451.72;;;1.98;69.84
74895;BME280;63447;49.446;8.666;2023-04-03T05:16:43;101468.53;;;2.12;70.06
74895;BME280;63447;49.446;8.666;2023-04-03T05:19:11;101469.44;;;2.18;69.33
74895;BME280;63447;49.446;8.666;2023-04-03T05:21:36;101475.22;;;2.21;69.72
74895;BME280;63447;49.446;8.666;2023-04-03T05:24:08;101455.06;;;2.22;69.52
74895;BME280;63447;49.446;8.666;2023-04-03T05:26:34;101454.31;;;2.27;71.42
74895;BME280;63447;49.446;8.666;2023-04-03T05:28:59;101463.50;;;2.59;71.62
74895;BME280;63447;49.446;8.666;2023-04-03T05:31:29;101451.16;;;2.35;68.13
74895;BME280;63447;49.446;8.666;2023-04-03T05:34:00;101469.25;;;2.63;68.69
74895;BME280;63447;49.446;8.666;2023-04-03T05:36:25;101465.16;;;2.82;68.31
74895;BME280;63447;49.446;8.666;2023-04-03T05:38:53;101469.69;;;2.98;69.75
74895;BME280;63447;49.446;8.666;2023-04-03T05:41:23;101466.31;;;3.13;68.33
74895;BME280;63447;49.446;8.666;2023-04-03T05:43:48;101468.03;;;3.19;67.95
74895;BME280;63447;49.446;8.666;2023-04-03T05:46:16;101451.25;;;3.05;67.61
74895;BME280;63447;49.446;8.666;2023-04-03T05:48:42;101473.22;;;3.21;68.38
74895;BME280;63447;49.446;8.666;2023-04-03T05:51:14;101476.31;;;3.29;68.37
74895;BME280;63447;49.446;8.666;2023-04-03T05:53:41;101477.16;;;3.30;68.11
74895;BME280;63447;49.446;8.666;2023-04-03T05:56:06;101486.41;;;3.29;66.79
74895;BME280;63447;49.446;8.666;2023-04-03T05:58:31;101469.88;;;3.14;68.92
74895;BME280;63447;49.446;8.666;2023-04-03T06:00:59;101487.75;;;3.26;68.11
74895;BME280;63447;49.446;8.666;2023-04-03T06:03:24;101482.13;;;3.11;69.50
74895;BME280;63447;49.446;8.666;2023-04-03T06:05:50;101480.38;;;3.27;68.45
74895;BME280;63447;49.446;8.666;2023-04-03T06:08:18;101477.50;;;3.38;68.17
74895;BME280;63447;49.446;8.666;2023-04-03T06:10:46;101479.41;;;3.38;68.59
74895;BME280;63447;49.446;8.666;2023-04-03T06:13:16;101481.16;;;3.49;68.53
74895;BME280;63447;49.446;8.666;2023-04-03T06:15:41;101480.03;;;3.45;69.25
74895;BME280;63447;49.446;8.666;2023-04-03T06:18:06;101491.69;;;3.62;68.76
74895;BME280;63447;49.446;8.666;2023-04-03T06:20:32;101478.09;;;3.72;67.76
74895;BME280;63447;49.446;8.666;2023-04-03T06:22:57;101482.13;;;3.65;68.94
74895;BME280;63447;49.446;8.666;2023-04-03T06:25:23;101475.94;;;3.74;67.59
74895;BME280;63447;49.446;8.666;2023-04-03T06:27:48;101474.97;;;3.91;67.51
74895;BME280;63447;49.446;8.666;2023-04-03T06:30:13;101491.16;;;3.97;68.35
74895;BME280;63447;49.446;8.666;2023-04-03T06:32:39;101486.91;;;4.12;69.67
74895;BME280;63447;49.446;8.666;2023-04-03T06:35:08;101486.97;;;4.22;68.08
74895;BME280;63447;49.446;8.666;2023-04-03T06:37:36;101499.88;;;4.31;66.47
74895;BME280;63447;49.446;8.666;2023-04-03T06:40:05;101487.03;;;4.32;66.28
74895;BME280;63447;49.446;8.666;2023-04-03T06:42:30;101485.31;;;4.16;66.96
74895;BME280;63447;49.446;8.666;2023-04-03T06:44:55;101490.09;;;4.35;67.04
74895;BME280;63447;49.446;8.666;2023-04-03T06:47:21;101503.78;;;4.46;67.36
74895;BME280;63447;49.446;8.666;2023-04-03T06:49:46;101483.59;;;4.52;65.87
74895;BME280;63447;49.446;8.666;2023-04-03T06:52:11;101495.75;;;4.66;65.21
74895;BME280;63447;49.446;8.666;2023-04-03T06:54:38;101500.13;;;4.67;65.90
74895;BME280;63447;49.446;8.666;2023-04-03T06:57:03;101493.53;;;4.63;66.45
74895;BME280;63447;49.446;8.666;2023-04-03T06:59:29;101504.53;;;4.78;65.34
74895;BME280;63447;49.446;8.666;2023-04-03T07:01:57;101494.56;;;4.57;65.59
74895;BME280;63447;49.446;8.666;2023-04-03T07:04:27;101503.44;;;4.79;64.48
74895;BME280;63447;49.446;8.666;2023-04-03T07:06:52;101500.19;;;4.82;64.67
74895;BME280;63447;49.446;8.666;2023-04-03T07:09:17;101510.28;;;4.82;65.42
74895;BME280;63447;49.446;8.666;2023-04-03T07:11:45;101514.75;;;5.03;63.17
74895;BME280;63447;49.446;8.666;2023-04-03T07:14:13;101513.94;;;5.02;63.38
74895;BME280;63447;49.446;8.666;2023-04-03T07:16:41;101522.50;;;5.16;62.90
74895;BME280;63447;49.446;8.666;2023-04-03T07:19:12;101518.09;;;5.20;62.88
74895;BME280;63447;49.446;8.666;2023-04-03T07:21:38;101534.59;;;5.35;62.65
74895;BME280;63447;49.446;8.666;2023-04-03T07:24:03;101536.00;;;5.43;63.16
74895;BME280;63447;49.446;8.666;2023-04-03T07:26:28;101537.41;;;5.61;62.26
74895;BME280;63447;49.446;8.666;2023-04-03T07:28:53;101529.16;;;5.56;60.95
74895;BME280;63447;49.446;8.666;2023-04-03T07:31:19;101514.13;;;5.63;60.62
74895;BME280;63447;49.446;8.666;2023-04-03T07:33:44;101545.38;;;5.77;60.70
74895;BME280;63447;49.446;8.666;2023-04-03T07:36:14;101536.94;;;5.94;60.05
74895;BME280;63447;49.446;8.666;2023-04-03T07:38:40;101534.22;;;6.09;59.32
74895;BME280;63447;49.446;8.666;2023-04-03T07:41:06;101542.13;;;6.01;58.70
74895;BME280;63447;49.446;8.666;2023-04-03T07:43:32;101546.25;;;6.03;59.16
74895;BME280;63447;49.446;8.666;2023-04-03T07:45:59;101548.47;;;6.17;57.58
74895;BME280;63447;49.446;8.666;2023-04-03T07:48:26;101541.34;;;6.10;59.72
74895;BME280;63447;49.446;8.666;2023-04-03T07:50:51;101534.78;;;6.22;59.15
74895;BME280;63447;49.446;8.666;2023-04-03T07:53:17;101545.97;;;6.25;56.96
74895;BME280;63447;49.446;8.666;2023-04-03T07:55:43;101541.88;;;6.38;57.23
74895;BME280;63447;49.446;8.666;2023-04-03T07:58:16;101504.34;;;6.23;56.33
74895;BME280;63447;49.446;8.666;2023-04-03T08:00:42;101536.13;;;6.44;54.32
74895;BME280;63447;49.446;8.666;2023-04-03T08:03:09;101542.66;;;6.74;54.21
74895;BME280;63447;49.446;8.666;2023-04-03T08:05:40;101545.97;;;6.66;53.41
74895;BME280;63447;49.446;8.666;2023-04-03T08:08:06;101532.19;;;6.91;53.96
74895;BME280;63447;49.446;8.666;2023-04-03T08:10:32;101455.47;;;6.66;53.25
74895;BME280;63447;49.446;8.666;2023-04-03T08:13:01;101540.38;;;7.01;52.69
74895;BME280;63447;49.446;8.666;2023-04-03T08:15:26;101543.88;;;7.17;53.24
74895;BME280;63447;49.446;8.666;2023-04-03T08:17:52;101538.66;;;7.26;49.98
74895;BME280;63447;49.446;8.666;2023-04-03T08:20:17;101541.16;;;7.07;50.51
74895;BME280;63447;49.446;8.666;2023-04-03T08:22:43;101545.53;;;7.13;49.34
74895;BME280;63447;49.446;8.666;2023-04-03T08:25:08;101535.41;;;7.08;49.44
74895;BME280;63447;49.446;8.666;2023-04-03T08:27:36;101530.59;;;7.39;49.70
74895;BME280;63447;49.446;8.666;2023-04-03T08:30:02;101542.38;;;7.50;48.82
74895;BME280;63447;49.446;8.666;2023-04-03T08:32:29;101541.69;;;7.68;49.75
74895;BME280;63447;49.446;8.666;2023-04-03T08:34:56;101513.69;;;7.66;48.27
74895;BME280;63447;49.446;8.666;2023-04-03T08:37:22;101543.13;;;8.05;49.57
74895;BME280;63447;49.446;8.666;2023-04-03T08:39:52;101535.53;;;7.42;47.46
74895;BME280;63447;49.446;8.666;2023-04-03T08:44:59;101550.63;;;8.28;47.39
74895;BME280;63447;49.446;8.666;2023-04-03T08:47:40;101541.75;;;8.36;46.14
74895;BME280;63447;49.446;8.666;2023-04-03T08:50:31;101540.34;;;8.44;45.88
74895;BME280;63447;49.446;8.666;2023-04-03T08:53:02;101541.75;;;8.36;46.13
74895;BME280;63447;49.446;8.666;2023-04-03T08:58:15;101558.59;;;8.59;43.87
74895;BME280;63447;49.446;8.666;2023-04-03T09:00:48;101543.69;;;8.65;44.66
74895;BME280;63447;49.446;8.666;2023-04-03T09:03:18;101548.09;;;8.66;43.98
74895;BME280;63447;49.446;8.666;2023-04-03T09:05:59;101546.34;;;8.75;43.93
74895;BME280;63447;49.446;8.666;2023-04-03T09:08:31;101539.88;;;8.61;42.65
74895;BME280;63447;49.446;8.666;2023-04-03T09:11:16;101554.38;;;8.71;43.33
74895;BME280;63447;49.446;8.666;2023-04-03T09:20:09;101538.44;;;9.16;42.37
74895;BME280;63447;49.446;8.666;2023-04-03T09:22:40;101543.34;;;9.62;43.05
74895;BME280;63447;49.446;8.666;2023-04-03T09:25:43;101534.88;;;8.92;42.36
74895;BME280;63447;49.446;8.666;2023-04-03T09:28:09;101547.22;;;9.42;42.97
74895;BME280;63447;49.446;8.666;2023-04-03T09:30:35;101540.69;;;9.57;41.08
74895;BME280;63447;49.446;8.666;2023-04-03T09:33:06;101538.91;;;9.66;40.91
74895;BME280;63447;49.446;8.666;2023-04-03T09:35:37;101543.75;;;9.74;42.19
74895;BME280;63447;49.446;8.666;2023-04-03T09:40:46;101542.72;;;10.40;41.58
74895;BME280;63447;49.446;8.666;2023-04-03T09:43:21;101538.34;;;10.39;40.20
74895;BME280;63447;49.446;8.666;2023-04-03T09:45:49;101540.28;;;10.38;40.52
74895;BME280;63447;49.446;8.666;2023-04-03T09:53:35;101534.41;;;10.72;36.92
74895;BME280;63447;49.446;8.666;2023-04-03T09:56:03;101531.19;;;11.11;36.99
74895;BME280;63447;49.446;8.666;2023-04-03T09:58:39;101514.06;;;11.23;37.42
74895;BME280;63447;49.446;8.666;2023-04-03T10:01:23;101540.91;;;10.35;37.27
74895;BME280;63447;49.446;8.666;2023-04-03T10:06:33;101541.28;;;9.53;36.19
74895;BME280;63447;49.446;8.666;2023-04-03T10:09:03;101529.03;;;9.22;38.20
74895;BME280;63447;49.446;8.666;2023-04-03T10:11:30;101545.28;;;10.36;37.68
74895;BME280;63447;49.446;8.666;2023-04-03T10:14:00;101541.66;;;10.54;37.65
74895;BME280;63447;49.446;8.666;2023-04-03T10:16:39;101533.84;;;10.89;36.27
74895;BME280;63447;49.446;8.666;2023-04-03T10:19:31;101533.00;;;10.10;37.35
74895;BME280;63447;49.446;8.666;2023-04-03T10:27:21;101533.66;;;10.20;36.33
74895;BME280;63447;49.446;8.666;2023-04-03T10:29:55;101527.28;;;10.99;37.34
74895;BME280;63447;49.446;8.666;2023-04-03T10:35:41;101531.31;;;10.46;35.96
74895;BME280;63447;49.446;8.666;2023-04-03T10:41:08;101537.56;;;10.19;36.82
74895;BME280;63447;49.446;8.666;2023-04-03T10:46:44;101528.13;;;10.39;37.65
74895;BME280;63447;49.446;8.666;2023-04-03T10:52:00;101531.47;;;10.17;36.97
74895;BME280;63447;49.446;8.666;2023-04-03T10:54:36;101526.09;;;9.75;37.90
74895;BME280;63447;49.446;8.666;2023-04-03T10:57:05;101532.03;;;10.01;37.77
74895;BME280;63447;49.446;8.666;2023-04-03T10:59:47;101527.09;;;10.16;38.57
74895;BME280;63447;49.446;8.666;2023-04-03T11:02:29;101518.91;;;9.36;39.14
74895;BME280;63447;49.446;8.666;2023-04-03T11:05:06;101515.31;;;9.17;38.75
74895;BME280;63447;49.446;8.666;2023-04-03T11:07:39;101499.28;;;9.80;38.87
74895;BME280;63447;49.446;8.666;2023-04-03T11:12:52;101487.88;;;9.87;36.41
74895;BME280;63447;49.446;8.666;2023-04-03T11:15:22;101526.88;;;10.78;36.77
74895;BME280;63447;49.446;8.666;2023-04-03T11:17:53;101530.66;;;10.96;34.14
74895;BME280;63447;49.446;8.666;2023-04-03T11:20:30;101522.34;;;10.54;35.25
74895;BME280;63447;49.446;8.666;2023-04-03T11:23:04;101527.38;;;9.82;36.66
74895;BME280;63447;49.446;8.666;2023-04-03T11:25:33;101515.75;;;10.18;36.52
74895;BME280;63447;49.446;8.666;2023-04-03T11:28:04;101529.00;;;9.83;37.98
74895;BME280;63447;49.446;8.666;2023-04-03T11:33:52;101523.63;;;9.92;38.65
74895;BME280;63447;49.446;8.666;2023-04-03T11:36:27;101504.09;;;10.40;37.19
74895;BME280;63447;49.446;8.666;2023-04-03T11:38:58;101527.50;;;10.42;35.76
74895;BME280;63447;49.446;8.666;2023-04-03T11:41:28;101521.34;;;10.64;36.09
74895;BME280;63447;49.446;8.666;2023-04-03T11:44:06;101522.88;;;9.49;36.11
74895;BME280;63447;49.446;8.666;2023-04-03T11:47:01;101529.63;;;8.95;38.03
74895;BME280;63447;49.446;8.666;2023-04-03T11:49:56;101530.22;;;8.63;39.79
74895;BME280;63447;49.446;8.666;2023-04-03T12:19:24;101499.41;;;10.08;37.85
74895;BME280;63447;49.446;8.666;2023-04-03T12:40:17;101480.91;;;11.86;32.34
74895;BME280;63447;49.446;8.666;2023-04-03T12:45:26;101474.47;;;11.77;31.42
74895;BME280;63447;49.446;8.666;2023-04-03T12:47:55;101464.63;;;12.38;32.50
74895;BME280;63447;49.446;8.666;2023-04-03T12:50:28;101452.00;;;13.03;30.74
74895;BME280;63447;49.446;8.666;2023-04-03T12:53:07;101464.41;;;12.04;32.62
74895;BME280;63447;49.446;8.666;2023-04-03T12:55:38;101465.78;;;12.77;31.70
74895;BME280;63447;49.446;8.666;2023-04-03T13:00:42;101467.06;;;12.71;30.83
74895;BME280;63447;49.446;8.666;2023-04-03T13:03:21;101433.66;;;12.76;31.35
74895;BME280;63447;49.446;8.666;2023-04-03T13:05:47;101460.91;;;11.76;30.75
74895;BME280;63447;49.446;8.666;2023-04-03T13:08:16;101459.63;;;12.18;32.63
74895;BME280;63447;49.446;8.666;2023-04-03T13:11:05;101456.75;;;11.78;32.86
74895;BME280;63447;49.446;8.666;2023-04-03T13:13:33;101448.75;;;11.99;33.55
74895;BME280;63447;49.446;8.666;2023-04-03T13:16:08;101436.88;;;12.21;32.82
74895;BME280;63447;49.446;8.666;2023-04-03T13:18:35;101430.63;;;10.99;35.39
74895;BME280;63447;49.446;8.666;2023-04-03T13:21:22;101443.09;;;10.96;35.39
74895;BME280;63447;49.446;8.666;2023-04-03T13:23:54;101440.97;;;11.07;34.76
74895;BME280;63447;49.446;8.666;2023-04-03T13:26:24;101446.38;;;11.12;34.93
74895;BME280;63447;49.446;8.666;2023-04-03T13:28:52;101441.78;;;10.66;35.31
74895;BME280;63447;49.446;8.666;2023-04-03T13:31:52;101453.34;;;11.45;34.65
74895;BME280;63447;49.446;8.666;2023-04-03T13:34:19;101435.06;;;10.86;35.27
74895;BME280;63447;49.446;8.666;2023-04-03T13:37:06;101451.56;;;11.63;33.56
74895;BME280;63447;49.446;8.666;2023-04-03T13:39:36;101447.13;;;13.08;31.95
74895;BME280;63447;49.446;8.666;2023-04-03T13:42:25;101453.88;;;11.83;33.32
74895;BME280;63447;49.446;8.666;2023-04-03T13:47:43;101458.22;;;12.29;31.15
74895;BME280;63447;49.446;8.666;2023-04-03T13:50:16;101422.25;;;13.51;29.21
74895;BME280;63447;49.446;8.666;2023-04-03T13:52:49;101450.63;;;14.73;26.23
74895;BME280;63447;49.446;8.666;2023-04-03T13:55:24;101445.53;;;14.28;25.19
74895;BME280;63447;49.446;8.666;2023-04-03T14:00:55;101426.59;;;15.69;26.16
74895;BME280;63447;49.446;8.666;2023-04-03T14:03:25;101426.81;;;14.92;27.09
74895;BME280;63447;49.446;8.666;2023-04-03T14:05:54;101392.00;;;15.37;25.24
74895;BME280;63447;49.446;8.666;2023-04-03T14:08:22;101395.41;;;15.63;25.21
74895;BME280;63447;49.446;8.666;2023-04-03T14:10:52;101414.41;;;14.90;24.79
74895;BME280;63447;49.446;8.666;2023-04-03T14:13:19;101422.25;;;15.38;24.40
74895;BME280;63447;49.446;8.666;2023-04-03T14:15:46;101434.94;;;14.13;26.69
74895;BME280;63447;49.446;8.666;2023-04-03T14:18:18;101431.91;;;14.52;26.60
74895;BME280;63447;49.446;8.666;2023-04-03T14:20:44;101419.06;;;14.77;25.67
74895;BME280;63447;49.446;8.666;2023-04-03T14:23:12;101416.19;;;17.57;22.26
74895;BME280;63447;49.446;8.666;2023-04-03T14:25:38;101408.31;;;18.78;19.41
74895;BME280;63447;49.446;8.666;2023-04-03T14:28:15;101408.66;;;16.93;21.04
74895;BME280;63447;49.446;8.666;2023-04-03T14:30:41;101395.19;;;18.97;20.06
74895;BME280;63447;49.446;8.666;2023-04-03T14:33:11;101380.81;;;19.69;19.06
74895;BME280;63447;49.446;8.666;2023-04-03T14:35:40;101361.91;;;17.67;21.07
74895;BME280;63447;49.446;8.666;2023-04-03T14:38:26;101379.75;;;18.37;19.74
74895;BME280;63447;49.446;8.666;2023-04-03T14:40:53;101399.31;;;17.93;20.10
74895;BME280;63447;49.446;8.666;2023-04-03T14:43:19;101376.91;;;19.74;18.47
74895;BME280;63447;49.446;8.666;2023-04-03T14:45:46;101389.19;;;17.21;20.28
74895;BME280;63447;49.446;8.666;2023-04-03T14:48:22;101386.22;;;16.89;21.84
74895;BME280;63447;49.446;8.666;2023-04-03T14:50:49;101385.84;;;18.58;19.70
74895;BME280;63447;49.446;8.666;2023-04-03T14:53:15;101371.78;;;18.08;20.44
74895;BME280;63447;49.446;8.666;2023-04-03T14:55:44;101368.06;;;20.59;17.68